Time;durP1;ratioP1;P1;durP2;ratioP2;P2;SDS_P1;SDS_P2;PMS_P1;PMS_P2;Temp;Humidity;BMP_temperature;BMP_pressure;BME280_temperature;BME280_humidity;BME280_pressure;Samples;Min_cycle;Max_cycle;Signal;HPM_P1;HPM_P2
2022/07/14 00:01:19;;;;;;;9.03;2.70;;;;;;;15.05;79.93;102006.78;5088479;28;20607;-72
2022/07/14 00:03:44;;;;;;;11.93;2.57;;;;;;;15.01;79.80;102004.13;5088246;28;20192;-72
2022/07/14 00:06:10;;;;;;;11.23;3.10;;;;;;;14.99;79.50;102006.66;5070235;28;20192;-72
2022/07/14 00:08:35;;;;;;;12.57;2.90;;;;;;;14.93;79.77;102006.56;5088106;28;20216;-72
2022/07/14 00:11:03;;;;;;;9.83;2.50;;;;;;;14.91;79.49;101997.88;5088213;28;20200;-72
2022/07/14 00:13:28;;;;;;;10.00;2.73;;;;;;;14.88;79.88;102002.13;5088222;28;20192;-71
2022/07/14 00:15:54;;;;;;;9.27;2.80;;;;;;;14.88;79.69;102004.72;5053272;28;20196;-72
2022/07/14 00:18:19;;;;;;;6.60;2.60;;;;;;;14.85;79.52;102002.94;5087945;28;20231;-72
2022/07/14 00:20:45;;;;;;;10.43;2.50;;;;;;;14.83;79.48;102003.75;5088185;28;20294;-72
2022/07/14 00:23:11;;;;;;;11.50;2.90;;;;;;;14.81;80.02;102007.97;5088193;28;20184;-72
2022/07/14 00:25:36;;;;;;;8.87;2.47;;;;;;;14.82;79.19;102013.19;5070163;28;20177;-72
2022/07/14 00:28:02;;;;;;;10.10;2.30;;;;;;;14.81;79.17;102005.41;5091108;28;20222;-72
2022/07/14 00:30:27;;;;;;;11.33;2.10;;;;;;;14.77;79.50;101998.44;5073894;28;20619;-72
2022/07/14 00:32:54;;;;;;;9.17;2.80;;;;;;;14.77;80.10;101995.84;5073993;28;20662;-72
2022/07/14 00:35:20;;;;;;;11.93;2.90;;;;;;;14.73;79.89;102000.09;5092119;28;20192;-72
2022/07/14 00:37:45;;;;;;;10.80;2.67;;;;;;;14.69;80.22;102002.59;5091723;28;20584;-72
2022/07/14 00:40:12;;;;;;;7.33;2.37;;;;;;;14.66;80.41;102005.09;5091647;28;20239;-72
2022/07/14 00:42:45;;;;;;;8.93;2.43;;;;;;;14.67;80.70;101999.97;5091817;28;20192;-72
2022/07/14 00:45:14;;;;;;;10.00;2.70;;;;;;;14.66;80.76;102002.50;5073307;28;20192;-72
2022/07/14 00:47:40;;;;;;;12.53;2.67;;;;;;;14.60;80.94;102004.97;5091593;28;20208;-72
2022/07/14 00:50:07;;;;;;;10.43;2.77;;;;;;;14.58;80.93;102001.47;5092153;28;20180;-72
2022/07/14 00:52:33;;;;;;;9.10;2.60;;;;;;;14.52;81.26;102009.97;5073792;28;20177;-72
2022/07/14 00:54:59;;;;;;;11.20;2.67;;;;;;;14.52;80.62;102006.50;5073423;28;20867;-72
2022/07/14 00:57:25;;;;;;;10.60;2.67;;;;;;;14.45;81.32;102002.91;5091452;28;20269;-72
2022/07/14 00:59:51;;;;;;;10.30;2.80;;;;;;;14.45;80.91;102002.06;5073256;28;20445;-72
2022/07/14 01:02:18;;;;;;;10.37;2.57;;;;;;;14.40;81.86;102007.09;5091255;28;20267;-72
2022/07/14 01:04:45;;;;;;;9.37;2.50;;;;;;;14.41;81.80;102007.97;5072521;28;20576;-72
2022/07/14 01:07:12;;;;;;;10.93;2.70;;;;;;;14.39;82.03;102009.63;5091160;28;20872;-72
2022/07/14 01:09:39;;;;;;;7.77;2.13;;;;;;;14.36;81.85;102007.00;5073049;28;20204;-72
2022/07/14 01:12:05;;;;;;;13.63;2.63;;;;;;;14.33;81.82;102007.81;5091382;28;20208;-72
2022/07/14 01:14:30;;;;;;;12.03;2.60;;;;;;;14.24;82.12;102006.72;5091304;28;20230;-72
2022/07/14 01:16:57;;;;;;;9.20;2.37;;;;;;;14.20;81.88;102012.59;5072536;28;20184;-71
2022/07/14 01:19:24;;;;;;;7.73;2.20;;;;;;;14.22;81.79;102013.56;5073188;28;20204;-72
2022/07/14 01:21:54;;;;;;;7.97;2.30;;;;;;;14.11;82.91;102015.84;5072862;28;20658;-72
2022/07/14 01:24:20;;;;;;;7.30;2.40;;;;;;;14.10;82.66;102014.09;5073245;28;20202;-72
2022/07/14 01:26:46;;;;;;;13.10;2.77;;;;;;;14.09;82.56;102012.31;5072941;28;20212;-72
2022/07/14 01:29:12;;;;;;;8.53;2.67;;;;;;;14.09;82.50;102021.78;5091084;28;20232;-71
2022/07/14 01:31:38;;;;;;;8.43;2.53;;;;;;;14.05;83.24;102001.94;5072873;28;20180;-72
2022/07/14 01:34:03;;;;;;;11.67;2.57;;;;;;;14.03;83.41;102004.47;5072836;28;20189;-72
2022/07/14 01:36:29;;;;;;;8.73;2.83;;;;;;;13.97;82.86;102000.88;5071501;28;20233;-72
2022/07/14 01:38:54;;;;;;;10.57;2.40;;;;;;;13.98;82.77;102000.03;5072425;28;20218;-72
2022/07/14 01:41:21;;;;;;;10.43;2.67;;;;;;;13.94;82.82;101999.09;5072388;28;20208;-72
2022/07/14 01:43:48;;;;;;;8.03;2.47;;;;;;;13.89;82.79;102002.38;5072422;28;20237;-72
2022/07/14 01:46:14;;;;;;;11.00;3.10;;;;;;;13.87;82.70;102001.47;5072107;28;20184;-72
2022/07/14 01:48:39;;;;;;;8.73;2.17;;;;;;;13.79;83.11;101992.69;5072482;28;20231;-72
2022/07/14 01:51:05;;;;;;;12.13;2.80;;;;;;;13.75;83.10;101999.47;5078039;28;20224;-72
2022/07/14 01:53:32;;;;;;;10.17;2.20;;;;;;;13.80;83.19;101986.69;5072470;28;20669;-72
2022/07/14 01:55:59;;;;;;;7.93;2.53;;;;;;;13.73;83.00;101980.56;5072346;28;20176;-72
2022/07/14 01:58:25;;;;;;;10.00;2.20;;;;;;;13.72;83.02;101993.38;5072090;28;20206;-72
2022/07/14 02:03:56;;;;;;;8.50;1.93;;;;;;;13.65;83.22;101988.91;4994962;28;20179;-73
2022/07/14 02:06:22;;;;;;;6.80;2.17;;;;;;;13.55;83.53;101995.53;5008072;28;20191;-72
2022/07/14 02:08:48;;;;;;;8.83;2.23;;;;;;;13.42;83.81;101985.75;5035607;28;20783;-72
2022/07/14 02:13:59;;;;;;;9.20;2.50;;;;;;;13.45;83.49;101990.97;5071793;28;20191;-72
2022/07/14 02:16:24;;;;;;;8.03;2.07;;;;;;;13.42;83.69;101987.44;5089851;28;20188;-72
2022/07/14 02:18:51;;;;;;;10.40;4.33;;;;;;;13.40;83.88;101994.25;5071841;28;20708;-72
2022/07/14 02:21:17;;;;;;;7.00;2.33;;;;;;;13.30;84.26;101992.28;5071624;28;20253;-72
2022/07/14 02:23:43;;;;;;;8.23;2.87;;;;;;;13.30;84.29;101997.44;5071706;28;20211;-73
2022/07/14 02:26:13;;;;;;;15.73;3.03;;;;;;;13.27;84.68;101990.50;5071642;28;20218;-71
2022/07/14 02:28:40;;;;;;;10.03;2.87;;;;;;;13.26;84.40;101995.59;5069267;28;20200;-72
2022/07/14 02:31:07;;;;;;;10.67;2.60;;;;;;;13.19;85.11;101996.25;5071601;28;20180;-72
2022/07/14 02:33:38;;;;;;;10.27;2.80;;;;;;;13.19;84.04;102006.53;5076041;28;20268;-72
2022/07/14 02:36:04;;;;;;;7.23;2.57;;;;;;;13.21;84.26;102004.91;5089506;28;20180;-72
2022/07/14 02:38:31;;;;;;;10.70;2.80;;;;;;;13.14;85.12;102009.00;5071099;28;20246;-72
2022/07/14 02:40:57;;;;;;;7.77;2.27;;;;;;;13.11;84.40;102008.91;5070898;28;20800;-72
2022/07/14 02:43:22;;;;;;;10.13;2.30;;;;;;;13.07;85.06;102007.06;5089740;28;20191;-72
2022/07/14 02:45:48;;;;;;;12.73;2.67;;;;;;;13.01;85.91;102008.59;5083000;28;20557;-72
2022/07/14 02:48:15;;;;;;;6.90;2.53;;;;;;;13.02;85.54;102010.38;5071023;28;20212;-72
2022/07/14 02:50:41;;;;;;;9.70;2.80;;;;;;;13.01;85.51;102012.06;5070934;28;20767;-72
2022/07/14 02:53:07;;;;;;;7.80;2.80;;;;;;;13.00;84.89;102012.00;5082526;28;20193;-72
2022/07/14 02:55:36;;;;;;;7.43;2.10;;;;;;;12.87;84.73;102005.63;5071345;28;20184;-73
2022/07/14 02:58:04;;;;;;;9.87;2.27;;;;;;;12.88;84.65;101997.94;5070952;28;20208;-72
2022/07/14 03:00:30;;;;;;;6.67;2.80;;;;;;;12.93;84.20;101998.06;5071280;28;20223;-72
2022/07/14 03:02:57;;;;;;;11.30;3.00;;;;;;;12.90;84.77;102000.56;5065865;28;20180;-72
2022/07/14 03:05:23;;;;;;;15.33;3.20;;;;;;;12.83;86.33;102002.09;5071299;28;20352;-71
2022/07/14 03:07:49;;;;;;;7.60;2.90;;;;;;;12.81;86.00;101998.59;5070554;28;20273;-72
2022/07/14 03:10:15;;;;;;;9.27;3.10;;;;;;;12.80;86.67;101996.84;5089111;28;20250;-72
2022/07/14 03:12:40;;;;;;;7.93;2.83;;;;;;;12.82;85.66;102002.03;5070970;28;20271;-72
2022/07/14 03:15:08;;;;;;;9.90;2.97;;;;;;;12.75;85.81;101997.53;5087147;28;20646;-72
2022/07/14 03:17:35;;;;;;;9.03;2.63;;;;;;;12.65;85.70;101998.97;5070414;28;20192;-72
2022/07/14 03:20:00;;;;;;;6.70;2.80;;;;;;;12.60;85.70;101999.66;5070896;28;20208;-72
2022/07/14 03:22:28;;;;;;;10.23;3.00;;;;;;;12.57;85.06;101997.88;5054403;28;20670;-73
2022/07/14 03:24:56;;;;;;;8.40;2.47;;;;;;;12.49;85.97;101995.91;5068749;28;20181;-72
2022/07/14 03:27:21;;;;;;;6.83;2.50;;;;;;;12.55;85.97;101993.53;5075597;28;20753;-73
2022/07/14 03:29:47;;;;;;;10.63;2.80;;;;;;;12.52;86.31;101986.59;5067924;28;20211;-72
2022/07/14 03:32:13;;;;;;;7.93;2.40;;;;;;;12.52;86.51;102001.13;5070603;28;20199;-71
2022/07/14 03:34:38;;;;;;;8.70;2.67;;;;;;;12.51;86.69;101997.69;5070557;28;20271;-72
2022/07/14 03:37:04;;;;;;;11.27;2.87;;;;;;;12.49;86.72;101999.34;5070180;28;20229;-72
2022/07/14 03:39:41;;;;;;;7.77;1.87;;;;;;;12.53;86.79;102001.19;5070503;28;20230;-72
2022/07/14 03:42:06;;;;;;;9.40;2.63;;;;;;;12.50;87.40;101998.50;5070487;28;20279;-72
2022/07/14 03:44:32;;;;;;;8.20;2.83;;;;;;;12.52;87.10;101999.44;5070397;28;20221;-72
2022/07/14 03:46:57;;;;;;;6.57;2.33;;;;;;;12.52;86.09;102006.25;5070400;28;20181;-72
2022/07/14 03:49:24;;;;;;;9.83;2.43;;;;;;;12.36;86.92;102012.63;5070227;28;20897;-72
2022/07/14 03:51:51;;;;;;;6.50;2.20;;;;;;;12.37;86.71;102014.41;5081698;28;20199;-72
2022/07/14 03:54:21;;;;;;;4.83;1.90;;;;;;;12.40;86.88;102017.03;5053326;28;20271;-73
2022/07/14 03:56:46;;;;;;;9.93;2.90;;;;;;;12.39;86.80;102024.72;5081547;28;20291;-72
2022/07/14 03:59:14;;;;;;;6.60;2.87;;;;;;;12.47;87.44;102025.81;5066484;28;20287;-71
2022/07/14 04:01:40;;;;;;;8.57;3.10;;;;;;;12.52;88.21;102029.38;5052602;28;20291;-72
2022/07/14 04:04:06;;;;;;;8.23;3.30;;;;;;;12.55;89.24;102024.34;5072292;28;20643;-72
2022/07/14 04:06:32;;;;;;;11.77;3.30;;;;;;;12.58;90.19;102020.16;5096372;28;20239;-72
2022/07/14 04:09:00;;;;;;;10.33;3.80;;;;;;;12.61;90.50;102020.28;5074297;28;20215;-72
2022/07/14 04:11:26;;;;;;;13.27;3.40;;;;;;;12.65;90.17;102019.53;5074250;28;20173;-72
2022/07/14 04:13:52;;;;;;;13.93;4.03;;;;;;;12.60;90.17;102020.22;5077575;28;20176;-72
2022/07/14 04:16:18;;;;;;;7.33;3.53;;;;;;;12.71;90.43;102022.28;5074056;28;20261;-72
2022/07/14 04:18:48;;;;;;;10.17;3.53;;;;;;;12.76;90.84;102017.28;5074229;28;20237;-72
2022/07/14 04:21:13;;;;;;;14.00;4.33;;;;;;;12.83;90.86;102019.19;5073995;28;20243;-72
2022/07/14 04:23:39;;;;;;;11.10;3.63;;;;;;;12.86;90.99;102022.72;5092320;28;20180;-72
2022/07/14 04:26:05;;;;;;;14.17;3.60;;;;;;;12.93;92.02;102024.66;5074041;28;20226;-72
2022/07/14 04:28:31;;;;;;;13.80;3.93;;;;;;;13.01;92.65;102031.75;5073736;28;20256;-72
2022/07/14 04:30:57;;;;;;;12.30;3.93;;;;;;;13.06;92.57;102030.16;5071667;28;20188;-72
2022/07/14 04:33:23;;;;;;;7.87;3.43;;;;;;;13.11;92.84;102026.06;5072704;28;20212;-72
2022/07/14 04:35:52;;;;;;;12.73;4.07;;;;;;;13.16;92.44;102029.63;5057523;28;20189;-72
2022/07/14 04:38:18;;;;;;;13.40;3.90;;;;;;;13.24;91.93;102035.81;5073548;28;20212;-72
2022/07/14 04:40:48;;;;;;;13.03;4.00;;;;;;;13.29;91.60;102035.13;5073535;28;20774;-71
2022/07/14 04:43:14;;;;;;;10.33;4.03;;;;;;;13.38;92.09;102037.06;5073610;28;20185;-72
2022/07/14 04:45:39;;;;;;;15.87;4.17;;;;;;;13.43;91.67;102038.94;5073675;28;20271;-72
2022/07/14 04:48:05;;;;;;;11.60;3.57;;;;;;;13.48;91.49;102033.94;5073266;28;20222;-72
2022/07/14 04:53:15;;;;;;;13.57;4.13;;;;;;;13.63;90.92;102035.19;5073627;28;20185;-72
2022/07/14 04:55:44;;;;;;;13.03;3.83;;;;;;;13.71;90.91;102033.69;5073374;28;20300;-72
2022/07/14 04:58:18;;;;;;;11.57;4.70;;;;;;;13.76;90.59;102038.97;5071032;28;20203;-72
2022/07/14 05:00:44;;;;;;;10.40;4.50;;;;;;;13.84;90.32;102043.47;5073247;28;20290;-72
2022/07/14 05:03:10;;;;;;;14.33;4.60;;;;;;;13.94;90.63;102034.25;5073441;28;20206;-72
2022/07/14 05:05:36;;;;;;;11.17;4.40;;;;;;;14.03;89.36;102035.38;5073312;28;20215;-72
2022/07/14 05:08:02;;;;;;;12.07;4.30;;;;;;;14.08;89.40;102041.50;5084365;28;20204;-72
2022/07/14 05:10:35;;;;;;;15.07;4.23;;;;;;;14.21;89.23;102046.16;5073187;28;20176;-72
2022/07/14 05:13:00;;;;;;;11.63;3.80;;;;;;;14.32;88.71;102038.69;5072713;28;20177;-72
2022/07/14 05:15:26;;;;;;;10.50;4.00;;;;;;;14.38;88.48;102046.56;5073024;28;20561;-72
2022/07/14 05:17:52;;;;;;;19.87;5.20;;;;;;;14.44;88.06;102050.16;5072938;28;20239;-72
2022/07/14 05:20:18;;;;;;;10.07;3.30;;;;;;;14.54;88.36;102052.09;5072864;28;20227;-72
2022/07/14 05:22:45;;;;;;;10.37;3.73;;;;;;;14.62;87.89;102054.84;5084295;28;20180;-72
2022/07/14 05:25:14;;;;;;;10.63;3.97;;;;;;;14.67;88.03;102048.06;5070816;28;20553;-72
2022/07/14 05:27:41;;;;;;;9.83;3.63;;;;;;;14.67;87.51;102048.97;5072720;28;20556;-72
2022/07/14 05:30:12;;;;;;;10.33;3.57;;;;;;;14.83;86.79;102035.53;5088484;28;20193;-72
2022/07/14 05:32:39;;;;;;;11.40;3.13;;;;;;;14.90;86.62;102041.69;5072689;28;20200;-72
2022/07/14 05:35:06;;;;;;;11.93;3.90;;;;;;;15.06;86.69;102042.06;5072598;28;20718;-71
2022/07/14 05:37:33;;;;;;;11.10;3.20;;;;;;;15.28;85.12;102043.38;5072467;28;20188;-71
2022/07/14 05:40:00;;;;;;;12.20;3.70;;;;;;;15.20;85.33;102043.19;5072555;28;20211;-72
2022/07/14 05:42:26;;;;;;;8.87;3.40;;;;;;;15.41;83.99;102042.78;5072858;28;20215;-72
2022/07/14 05:44:51;;;;;;;10.20;3.30;;;;;;;15.57;83.15;102045.66;5072694;28;20192;-72
2022/07/14 05:47:17;;;;;;;9.27;3.13;;;;;;;15.42;82.89;102039.38;5083559;28;20184;-71
2022/07/14 05:49:43;;;;;;;12.00;3.30;;;;;;;15.45;83.32;102048.03;5072457;28;20549;-72
2022/07/14 05:52:13;;;;;;;11.13;3.17;;;;;;;15.57;82.20;102037.06;5092839;28;20195;-72
2022/07/14 05:54:39;;;;;;;8.20;2.67;;;;;;;15.82;81.17;102041.81;5072242;28;20638;-72
2022/07/14 05:57:09;;;;;;;8.07;2.90;;;;;;;15.89;81.03;102041.94;5055737;28;20188;-72
2022/07/14 05:59:35;;;;;;;11.30;3.40;;;;;;;15.83;81.47;102034.09;5072169;28;20304;-72
2022/07/14 06:02:01;;;;;;;9.40;2.93;;;;;;;16.11;81.03;102030.28;5072054;28;20211;-72
2022/07/14 06:04:28;;;;;;;8.17;2.50;;;;;;;16.42;80.03;102028.22;5090280;28;20187;-72
2022/07/14 06:06:53;;;;;;;13.60;3.10;;;;;;;16.55;78.64;102027.53;5071834;28;20184;-72
2022/07/14 06:09:19;;;;;;;7.77;2.47;;;;;;;16.69;77.94;102035.47;5072024;28;20250;-72
2022/07/14 06:11:45;;;;;;;12.90;2.97;;;;;;;16.80;76.86;102021.00;5072036;28;20186;-72
2022/07/14 06:14:11;;;;;;;10.40;3.03;;;;;;;16.93;76.31;102023.75;5083155;28;20210;-72
2022/07/14 06:16:39;;;;;;;8.13;2.53;;;;;;;16.92;74.95;102023.72;5071770;28;20188;-72
2022/07/14 06:19:05;;;;;;;12.37;2.53;;;;;;;17.01;74.98;102031.59;5071696;28;20211;-72
2022/07/14 06:21:30;;;;;;;11.57;2.90;;;;;;;17.10;73.84;102029.13;5071808;28;20286;-71
2022/07/14 06:23:56;;;;;;;8.97;2.80;;;;;;;17.12;74.12;102024.81;5070700;28;20193;-72
2022/07/14 06:26:22;;;;;;;6.90;2.43;;;;;;;17.23;74.68;102021.50;5072079;28;20700;-72
2022/07/14 06:28:49;;;;;;;7.80;2.43;;;;;;;17.47;73.17;102016.63;5070621;28;20693;-72
2022/07/14 06:31:15;;;;;;;6.17;2.33;;;;;;;17.60;71.16;102018.47;5089372;28;20176;-72
2022/07/14 06:33:41;;;;;;;6.30;1.83;;;;;;;17.74;69.22;102019.47;5072119;28;20257;-72
2022/07/14 06:36:21;;;;;;;6.20;1.87;;;;;;;17.87;67.21;102020.47;5071612;28;20313;-72
2022/07/14 06:38:47;;;;;;;6.93;1.67;;;;;;;17.69;66.68;102017.72;5077049;28;20197;-72
2022/07/14 06:41:12;;;;;;;5.83;1.70;;;;;;;17.65;68.09;102010.75;5071384;28;20234;-72
2022/07/14 06:43:42;;;;;;;7.37;1.90;;;;;;;17.92;67.74;102005.81;5072149;28;20264;-72
2022/07/14 06:46:13;;;;;;;4.03;1.30;;;;;;;18.17;65.20;102002.53;5072490;28;20725;-72
2022/07/14 06:48:39;;;;;;;7.90;1.97;;;;;;;18.36;64.63;102014.81;5062455;28;20258;-72
2022/07/14 06:51:04;;;;;;;5.80;1.57;;;;;;;18.49;64.63;102006.25;5070380;28;20169;-72
2022/07/14 06:53:30;;;;;;;7.07;1.83;;;;;;;18.54;64.53;101999.34;5085886;28;20227;-72
2022/07/14 06:55:55;;;;;;;8.07;1.70;;;;;;;18.60;64.13;102002.84;5070224;28;20234;-72
2022/07/14 06:58:20;;;;;;;8.47;1.73;;;;;;;18.70;63.67;101996.00;5052115;28;20240;-72
2022/07/14 07:00:46;;;;;;;5.73;1.70;;;;;;;18.94;63.01;102004.75;5079368;28;20212;-72
2022/07/14 07:03:12;;;;;;;6.10;1.20;;;;;;;18.97;61.49;101996.13;5090185;28;20224;-72
2022/07/14 07:08:23;;;;;;;5.90;1.60;;;;;;;18.84;62.14;101994.34;5089839;28;20212;-72
2022/07/14 07:10:49;;;;;;;5.80;1.30;;;;;;;19.17;61.05;101991.84;5071963;28;20267;-71
2022/07/14 07:13:14;;;;;;;5.30;1.40;;;;;;;19.62;60.58;101974.63;5090169;28;20185;-72
2022/07/14 07:15:40;;;;;;;5.40;1.43;;;;;;;19.19;60.25;101978.00;5089347;28;20196;-72
2022/07/14 07:18:06;;;;;;;4.57;1.40;;;;;;;18.95;60.30;101983.13;5071722;28;20219;-72
2022/07/14 07:20:35;;;;;;;6.13;1.37;;;;;;;19.44;59.15;101981.56;5090036;28;20216;-71
2022/07/14 07:23:03;;;;;;;5.93;1.60;;;;;;;19.62;59.07;101987.63;5105354;28;20638;-72
2022/07/14 07:25:28;;;;;;;4.87;1.20;;;;;;;20.12;57.12;101978.13;5089954;28;20250;-73
2022/07/14 07:27:54;;;;;;;5.20;1.27;;;;;;;20.39;57.68;101967.66;5089290;28;20295;-71
2022/07/14 07:30:20;;;;;;;5.17;1.50;;;;;;;20.14;56.86;101963.38;5071626;28;20263;-72
2022/07/14 07:32:46;;;;;;;4.87;1.57;;;;;;;20.10;57.20;101963.38;5089854;28;20317;-71
2022/07/14 07:35:12;;;;;;;4.77;1.50;;;;;;;20.52;55.46;101966.75;5071514;28;20669;-72
2022/07/14 07:37:37;;;;;;;5.83;1.43;;;;;;;20.84;54.43;101956.22;5089175;28;20212;-73
2022/07/14 07:40:03;;;;;;;5.07;1.20;;;;;;;20.75;54.42;101951.91;5088974;28;20278;-72
2022/07/14 07:42:29;;;;;;;5.73;1.27;;;;;;;20.88;54.21;101951.00;5070895;28;20266;-72
2022/07/14 07:44:55;;;;;;;4.07;1.23;;;;;;;20.41;55.02;101952.03;5089064;28;20238;-72
2022/07/14 07:47:23;;;;;;;5.50;1.13;;;;;;;20.20;55.27;101954.69;5089161;28;20254;-72
2022/07/14 07:49:48;;;;;;;5.13;1.33;;;;;;;19.92;57.15;101956.44;5089310;28;20220;-72
2022/07/14 07:52:14;;;;;;;3.97;1.40;;;;;;;19.73;56.57;101956.44;5089128;28;20218;-73
2022/07/14 07:54:39;;;;;;;6.67;1.27;;;;;;;19.61;55.57;101957.31;5089271;28;20279;-73
2022/07/14 07:57:05;;;;;;;4.67;1.20;;;;;;;19.53;55.41;101963.38;5088916;28;20192;-73
2022/07/14 07:59:31;;;;;;;3.93;1.33;;;;;;;19.79;55.13;101946.03;5054622;28;31116;-73
2022/07/14 08:01:56;;;;;;;3.83;1.23;;;;;;;20.78;53.83;101935.41;5089081;28;20208;-72
2022/07/14 08:04:22;;;;;;;4.47;1.00;;;;;;;21.11;51.54;101940.47;5081222;28;20211;-72
2022/07/14 08:06:48;;;;;;;4.77;1.40;;;;;;;21.34;50.68;101946.41;5055186;28;20294;-72
2022/07/14 08:09:13;;;;;;;5.40;1.07;;;;;;;21.28;50.34;101938.63;5099355;28;20685;-72
2022/07/14 08:11:40;;;;;;;3.33;1.17;;;;;;;21.68;51.28;101940.91;5090371;28;20175;-72
2022/07/14 08:14:47;;;;;;;2.97;0.97;;;;;;;21.77;49.65;101938.25;5109175;28;20232;-72
2022/07/14 08:16:54;;;;;;;3.20;1.07;;;;;;;22.12;47.98;101940.53;5084132;28;20279;-72
2022/07/14 08:19:19;;;;;;;3.33;1.23;;;;;;;22.39;46.55;101929.81;5072401;28;20688;-73
2022/07/14 08:21:45;;;;;;;3.37;1.10;;;;;;;22.40;46.59;101918.47;5095204;28;20208;-72
2022/07/14 08:24:10;;;;;;;5.53;0.90;;;;;;;22.63;45.96;101918.22;5068375;28;20585;-73
2022/07/14 08:26:36;;;;;;;4.80;1.40;;;;;;;21.86;47.51;101917.31;5068210;28;20652;-72
2022/07/14 08:29:01;;;;;;;2.37;0.87;;;;;;;21.89;48.73;101921.63;5067346;28;20224;-72
2022/07/14 08:31:26;;;;;;;4.10;1.00;;;;;;;21.44;47.85;101920.25;5087847;28;20189;-72
2022/07/14 08:33:52;;;;;;;3.30;1.07;;;;;;;21.11;49.17;101917.91;5104437;28;20320;-72
2022/07/14 08:36:17;;;;;;;2.23;0.80;;;;;;;21.33;47.76;101916.00;5053378;28;20184;-72
2022/07/14 08:38:43;;;;;;;4.20;0.93;;;;;;;22.12;47.90;101912.69;5088139;28;20208;-72
2022/07/14 08:41:10;;;;;;;2.97;0.93;;;;;;;21.88;48.10;101912.09;5088263;28;20220;-72
2022/07/14 08:43:36;;;;;;;4.30;0.90;;;;;;;21.24;49.23;101910.84;5070079;28;20216;-72
2022/07/14 08:46:04;;;;;;;6.33;1.30;;;;;;;21.04;48.02;101908.38;5070323;28;20189;-73
2022/07/14 08:48:31;;;;;;;2.87;0.90;;;;;;;21.85;46.29;101892.13;5090990;28;20223;-72
2022/07/14 08:50:58;;;;;;;2.83;0.80;;;;;;;22.47;44.99;101894.03;5092059;28;20843;-73
2022/07/14 08:53:26;;;;;;;1.63;0.80;;;;;;;22.94;44.81;101894.28;5092012;28;20189;-73
2022/07/14 08:55:53;;;;;;;3.00;0.80;;;;;;;22.93;45.00;101895.16;5073707;28;20280;-72
2022/07/14 08:58:18;;;;;;;4.53;1.13;;;;;;;22.88;45.94;101899.59;5091801;28;20420;-73
2022/07/14 09:00:44;;;;;;;1.83;1.00;;;;;;;22.37;47.82;101892.38;5073506;28;20298;-72
2022/07/14 09:03:09;;;;;;;3.37;0.70;;;;;;;22.37;47.20;101899.38;5074719;28;20188;-73
2022/07/14 09:05:38;;;;;;;2.87;1.00;;;;;;;22.03;46.40;101901.50;5091828;28;20682;-73
2022/07/14 09:08:04;;;;;;;2.37;0.80;;;;;;;21.95;45.73;101896.34;5099511;28;20196;-72
2022/07/14 09:10:30;;;;;;;1.63;0.60;;;;;;;22.33;46.18;101902.91;5084188;28;20182;-74
2022/07/14 09:13:14;;;;;;;2.13;0.93;;;;;;;22.81;45.21;101881.41;5071727;28;20255;-73
2022/07/14 09:15:46;;;;;;;1.83;0.70;;;;;;;22.83;44.06;101888.34;5071530;28;20185;-74
2022/07/14 09:18:28;;;;;;;3.23;0.90;;;;;;;22.77;43.87;101877.97;5070993;28;20572;-77
2022/07/14 09:20:55;;;;;;;3.43;1.10;;;;;;;22.57;45.39;101886.97;5071193;28;20212;-73
2022/07/14 09:23:47;;;;;;;3.83;0.87;;;;;;;22.12;45.61;101893.56;5059292;28;20228;-73
2022/07/14 09:26:18;;;;;;;4.53;1.37;;;;;;;21.90;44.48;101897.28;5068195;28;20200;-73
2022/07/14 09:28:46;;;;;;;5.10;0.80;;;;;;;22.33;45.78;101898.53;5073467;28;20211;-72
2022/07/14 09:31:27;;;;;;;3.40;1.00;;;;;;;22.14;46.57;101890.06;5079903;28;20181;-73
2022/07/14 09:34:06;;;;;;;1.53;0.70;;;;;;;22.24;45.89;101881.25;5071439;28;20186;-73
2022/07/14 09:36:34;;;;;;;4.90;1.00;;;;;;;22.58;44.41;101884.34;5049015;28;21009;-72
2022/07/14 09:39:05;;;;;;;4.37;1.10;;;;;;;22.43;44.92;101881.91;5052628;28;20197;-72
2022/07/14 09:41:35;;;;;;;5.40;0.90;;;;;;;22.57;44.63;101876.50;5070896;28;20197;-73
2022/07/14 09:44:09;;;;;;;1.47;0.70;;;;;;;22.16;44.96;101879.59;5071062;28;20177;-73
2022/07/14 09:46:56;;;;;;;5.00;0.87;;;;;;;22.39;44.80;101874.97;5070583;28;20176;-73
2022/07/14 09:49:27;;;;;;;10.43;1.43;;;;;;;22.43;45.49;101869.69;5070758;28;20205;-73
2022/07/14 09:52:05;;;;;;;1.87;0.80;;;;;;;22.69;44.31;101869.38;5052620;28;20188;-73
2022/07/14 09:54:36;;;;;;;4.30;0.80;;;;;;;23.26;42.94;101860.72;5060909;28;20185;-73
2022/07/14 09:57:05;;;;;;;3.07;0.73;;;;;;;23.67;42.84;101860.00;5036319;28;20655;-73
2022/07/14 09:59:30;;;;;;;5.40;1.20;;;;;;;23.88;42.98;101852.63;5069413;28;20201;-73
2022/07/14 10:01:56;;;;;;;3.40;0.68;;;;;;;24.47;41.10;101847.06;5052364;28;20224;-73
2022/07/14 10:04:22;;;;;;;4.10;0.82;;;;;;;24.89;40.52;101858.38;5070333;28;20799;-73
2022/07/14 10:06:48;;;;;;;3.97;1.25;;;;;;;23.73;42.03;101857.28;5052440;28;20189;-73
2022/07/14 10:09:15;;;;;;;4.07;0.80;;;;;;;23.31;43.42;101863.25;5070309;28;20747;-73
2022/07/14 10:11:41;;;;;;;3.93;1.00;;;;;;;23.22;43.93;101864.28;5090986;28;20598;-73
2022/07/14 10:14:07;;;;;;;3.83;1.00;;;;;;;23.11;44.10;101860.91;5091330;28;20188;-73
2022/07/14 10:16:34;;;;;;;2.97;0.93;;;;;;;23.88;43.36;101852.63;5090461;28;20275;-73
2022/07/14 10:19:01;;;;;;;2.13;0.80;;;;;;;23.92;42.54;101856.94;5080475;28;20204;-73
2022/07/14 10:21:27;;;;;;;2.42;0.88;;;;;;;23.78;43.39;101844.97;5064940;28;20299;-73
2022/07/14 10:23:54;;;;;;;2.58;1.05;;;;;;;23.81;42.03;101840.53;5075612;28;20228;-73
2022/07/14 10:26:20;;;;;;;2.10;0.73;;;;;;;23.86;42.44;101843.94;5064506;28;20214;-74
2022/07/14 10:28:45;;;;;;;2.72;0.90;;;;;;;24.17;40.04;101836.38;5074491;28;20240;-73
2022/07/14 10:31:36;;;;;;;1.55;0.63;;;;;;;24.12;39.47;101840.84;5076826;28;20213;-73
2022/07/14 10:34:17;;;;;;;2.53;0.95;;;;;;;24.32;39.74;101833.44;5069984;28;20204;-73
2022/07/14 10:36:51;;;;;;;0.70;0.50;;;;;;;24.83;39.15;101825.34;5068587;28;20185;-73
2022/07/14 10:39:23;;;;;;;2.15;0.75;;;;;;;25.02;39.20;101830.97;5068561;28;20216;-73
2022/07/14 10:42:29;;;;;;;4.40;1.15;;;;;;;25.31;37.73;101825.91;5068376;28;20204;-73
2022/07/14 10:44:55;;;;;;;2.85;0.90;;;;;;;25.41;38.05;101820.41;5068539;28;20189;-73
2022/07/14 10:47:23;;;;;;;2.80;0.90;;;;;;;24.31;39.68;101819.47;5068450;28;20173;-73
2022/07/14 10:50:09;;;;;;;2.05;0.75;;;;;;;23.11;40.87;101824.31;5069645;28;20209;-72
2022/07/14 10:52:37;;;;;;;2.03;1.03;;;;;;;23.18;41.15;101818.09;5068364;28;20219;-73
2022/07/14 10:55:37;;;;;;;3.40;0.80;;;;;;;23.54;42.16;101827.09;5069601;28;20558;-73
2022/07/14 10:58:06;;;;;;;2.90;0.80;;;;;;;23.77;41.23;101828.41;5069328;28;20228;-73
2022/07/14 11:00:44;;;;;;;7.80;1.03;;;;;;;23.89;41.66;101827.31;5084730;28;20586;-73
2022/07/14 11:03:18;;;;;;;4.83;0.90;;;;;;;23.85;41.27;101810.78;5069435;28;20241;-73
2022/07/14 11:06:09;;;;;;;3.57;0.80;;;;;;;23.73;41.05;101813.66;5085027;28;20226;-73
2022/07/14 11:08:39;;;;;;;2.90;1.10;;;;;;;23.78;41.82;101814.44;5057123;28;20205;-73
2022/07/14 11:11:15;;;;;;;4.27;0.87;;;;;;;23.98;40.80;101809.69;5047693;28;20268;-73
2022/07/14 11:14:12;;;;;;;2.53;1.00;;;;;;;23.70;41.58;101805.84;5048018;28;20192;-73
2022/07/14 11:16:47;;;;;;;1.77;0.80;;;;;;;23.73;41.44;101811.03;5048958;28;20280;-73
2022/07/14 11:19:37;;;;;;;2.53;0.90;;;;;;;23.88;41.32;101800.28;5071465;28;20224;-73
2022/07/14 11:22:17;;;;;;;2.00;0.83;;;;;;;23.86;42.02;101806.44;5067336;28;20814;-73
2022/07/14 11:25:01;;;;;;;4.23;1.20;;;;;;;23.78;41.81;101809.19;5076290;28;20218;-73
2022/07/14 11:27:36;;;;;;;1.65;0.70;;;;;;;23.90;41.65;101813.38;5070675;28;20200;-73
2022/07/14 11:30:24;;;;;;;3.22;0.73;;;;;;;24.00;42.21;101818.41;5078907;28;20189;-73
2022/07/14 11:33:02;;;;;;;2.13;0.77;;;;;;;23.57;42.08;101814.81;5089091;28;20208;-73
2022/07/14 11:38:37;;;;;;;3.63;1.10;;;;;;;23.66;43.43;101814.66;5089029;28;20207;-73
2022/07/14 11:41:08;;;;;;;2.73;1.10;;;;;;;23.84;43.06;101805.63;5089081;28;20204;-73